Time;durP1;ratioP1;P1;durP2;ratioP2;P2;SDS_P1;SDS_P2;PMS_P1;PMS_P2;Temp;Humidity;BMP_temperature;BMP_pressure;BME280_temperature;BME280_humidity;BME280_pressure;Samples;Min_cycle;Max_cycle;Signal;HPM_P1;HPM_P2
2023/07/19 00:01:22;;;;;;;6.50;3.90;;;22.40;99.90;;;;;;5070399;28;20730;-53
2023/07/19 00:03:49;;;;;;;6.50;4.57;;;22.30;99.90;;;;;;5061153;28;20218;-53
2023/07/19 00:06:16;;;;;;;8.33;4.20;;;22.30;99.90;;;;;;5068938;28;20247;-54
2023/07/19 00:08:44;;;;;;;4.80;3.30;;;22.40;99.90;;;;;;5062994;28;20197;-53
2023/07/19 00:11:11;;;;;;;4.47;4.07;;;22.40;99.90;;;;;;5070447;28;20275;-53
2023/07/19 00:13:38;;;;;;;4.30;3.40;;;22.30;99.90;;;;;;5068760;28;20681;-53
2023/07/19 00:16:05;;;;;;;10.97;3.60;;;22.30;99.90;;;;;;5070059;28;20289;-54
2023/07/19 00:18:32;;;;;;;4.90;3.30;;;22.20;99.90;;;;;;5069285;28;20340;-53
2023/07/19 00:20:59;;;;;;;9.73;4.90;;;22.20;99.90;;;;;;5069984;28;20695;-53
2023/07/19 00:23:26;;;;;;;8.63;4.40;;;22.20;99.90;;;;;;5067936;28;20200;-53
2023/07/19 00:25:54;;;;;;;11.33;4.40;;;22.20;99.90;;;;;;5070131;28;20677;-54
2023/07/19 00:28:21;;;;;;;10.83;3.37;;;22.10;99.90;;;;;;5069644;28;20209;-53
2023/07/19 00:30:48;;;;;;;6.60;3.63;;;22.00;99.90;;;;;;5064708;28;20222;-53
2023/07/19 00:33:15;;;;;;;11.93;4.53;;;22.00;99.90;;;;;;5065945;28;20194;-53
2023/07/19 00:35:42;;;;;;;9.63;3.90;;;22.00;99.90;;;;;;5066673;28;20633;-53
2023/07/19 00:38:09;;;;;;;9.50;5.70;;;21.90;99.90;;;;;;5070191;28;20586;-53
2023/07/19 00:40:36;;;;;;;6.50;4.00;;;21.80;99.90;;;;;;5070266;28;20294;-53
2023/07/19 00:43:11;;;;;;;9.57;5.47;;;21.80;99.90;;;;;;5066352;28;20254;-53
2023/07/19 00:45:44;;;;;;;10.17;4.53;;;21.80;99.90;;;;;;5065970;28;20234;-54
2023/07/19 00:48:11;;;;;;;9.57;4.00;;;21.80;99.90;;;;;;5070086;28;20213;-53
2023/07/19 00:50:38;;;;;;;7.03;3.67;;;21.70;99.90;;;;;;5069779;28;20225;-53
2023/07/19 00:53:05;;;;;;;9.97;3.73;;;21.70;99.90;;;;;;5068301;28;20697;-53
2023/07/19 00:55:33;;;;;;;5.80;3.20;;;21.70;99.90;;;;;;5067669;28;20280;-53
2023/07/19 00:58:00;;;;;;;12.50;4.20;;;21.70;99.90;;;;;;5069150;28;20242;-53
2023/07/19 01:00:30;;;;;;;10.30;4.70;;;21.60;99.90;;;;;;5069684;28;20221;-53
2023/07/19 01:02:57;;;;;;;7.70;4.93;;;21.70;99.90;;;;;;5068632;28;20201;-53
2023/07/19 01:05:24;;;;;;;8.23;4.00;;;21.70;99.90;;;;;;5063399;28;20229;-53
2023/07/19 01:07:51;;;;;;;5.83;5.30;;;21.70;99.90;;;;;;5065642;28;20206;-53
2023/07/19 01:10:18;;;;;;;10.63;4.07;;;21.70;99.90;;;;;;5069708;28;20209;-53
2023/07/19 01:12:45;;;;;;;9.43;4.60;;;21.70;99.90;;;;;;5069213;28;20197;-54
2023/07/19 01:15:12;;;;;;;6.37;4.23;;;21.70;99.90;;;;;;5062456;28;20728;-53
2023/07/19 01:17:43;;;;;;;7.13;4.03;;;21.70;99.90;;;;;;5072706;28;20246;-53
2023/07/19 01:20:11;;;;;;;10.63;3.87;;;21.70;99.90;;;;;;5071429;28;20278;-53
2023/07/19 01:22:41;;;;;;;8.53;5.10;;;21.60;99.90;;;;;;5072673;28;20735;-53
2023/07/19 01:25:09;;;;;;;4.57;4.10;;;21.50;99.90;;;;;;5077566;22;20225;-52
2023/07/19 01:27:36;;;;;;;6.73;4.33;;;21.40;99.90;;;;;;5059061;28;20198;-52
2023/07/19 01:30:03;;;;;;;9.00;5.47;;;21.40;99.90;;;;;;5055047;28;20260;-52
2023/07/19 01:32:30;;;;;;;5.83;4.43;;;21.30;99.90;;;;;;5058089;28;20270;-53
2023/07/19 01:34:57;;;;;;;9.13;4.97;;;21.40;99.90;;;;;;5056833;28;20267;-52
2023/07/19 01:37:24;;;;;;;6.80;4.70;;;21.40;99.90;;;;;;5068431;28;20242;-52
2023/07/19 01:39:52;;;;;;;7.77;4.93;;;21.30;99.90;;;;;;5075044;28;20628;-52
2023/07/19 01:42:19;;;;;;;8.53;4.37;;;21.30;99.90;;;;;;5072407;28;20201;-52
2023/07/19 01:44:46;;;;;;;11.80;4.80;;;21.20;99.90;;;;;;5055708;28;20299;-52
2023/07/19 01:47:13;;;;;;;6.63;4.27;;;21.20;99.90;;;;;;5067148;28;20198;-52
2023/07/19 01:49:41;;;;;;;7.77;5.27;;;21.10;99.90;;;;;;5074294;28;20853;-52
2023/07/19 01:52:08;;;;;;;7.63;4.67;;;21.10;99.90;;;;;;5074511;28;20201;-52
2023/07/19 01:54:35;;;;;;;14.77;4.97;;;21.20;99.90;;;;;;5068865;28;20720;-52
2023/07/19 01:57:05;;;;;;;6.03;4.47;;;21.20;99.90;;;;;;5052437;28;20263;-52
2023/07/19 01:59:32;;;;;;;11.20;4.73;;;21.20;99.90;;;;;;5074309;28;20287;-52
2023/07/19 02:01:59;;;;;;;9.03;4.67;;;21.20;99.90;;;;;;5048694;28;20194;-52
2023/07/19 02:04:26;;;;;;;12.17;5.53;;;21.10;99.90;;;;;;5053786;28;20244;-51
2023/07/19 02:06:54;;;;;;;13.70;4.67;;;21.00;99.90;;;;;;5051848;28;20212;-52
2023/07/19 02:09:21;;;;;;;11.53;5.40;;;20.90;99.90;;;;;;5050890;28;20243;-52
2023/07/19 02:11:47;;;;;;;6.47;4.87;;;20.80;99.90;;;;;;5062887;28;20655;-53
2023/07/19 02:14:16;;;;;;;11.47;5.37;;;20.80;99.90;;;;;;5073897;28;20213;-52
2023/07/19 02:16:43;;;;;;;15.80;5.00;;;20.80;99.90;;;;;;5073974;28;20262;-52
2023/07/19 02:19:10;;;;;;;7.90;4.57;;;20.80;99.90;;;;;;5063727;28;20655;-52
2023/07/19 02:21:37;;;;;;;6.13;5.30;;;20.80;99.90;;;;;;5049729;28;20807;-52
2023/07/19 02:24:05;;;;;;;6.43;4.43;;;20.90;99.90;;;;;;5073130;28;20252;-52
2023/07/19 02:26:32;;;;;;;9.60;5.77;;;20.90;99.90;;;;;;5073926;28;20674;-52
2023/07/19 02:28:59;;;;;;;7.80;5.40;;;20.90;99.90;;;;;;5069834;28;20247;-53
2023/07/19 02:31:27;;;;;;;7.47;5.43;;;20.90;99.90;;;;;;5065224;28;20216;-53
2023/07/19 02:33:54;;;;;;;7.23;5.40;;;20.90;99.90;;;;;;5062869;28;20217;-52
2023/07/19 02:36:21;;;;;;;7.33;5.50;;;21.00;99.90;;;;;;5073689;28;20201;-53
2023/07/19 02:38:48;;;;;;;14.60;6.63;;;21.10;99.90;;;;;;5071358;28;20201;-52
2023/07/19 02:41:15;;;;;;;6.10;4.40;;;21.10;99.90;;;;;;5065223;28;20193;-52
2023/07/19 02:43:42;;;;;;;5.60;4.60;;;21.10;99.90;;;;;;5073478;28;20221;-52
2023/07/19 02:46:09;;;;;;;7.63;5.40;;;21.20;99.90;;;;;;5057340;28;20691;-52
2023/07/19 02:48:37;;;;;;;9.03;6.40;;;21.20;99.90;;;;;;5067561;28;20208;-52
2023/07/19 02:51:04;;;;;;;5.87;4.87;;;21.20;99.90;;;;;;5064278;28;20193;-52
2023/07/19 02:53:31;;;;;;;9.40;6.57;;;21.30;99.90;;;;;;5073175;28;20225;-52
2023/07/19 02:55:58;;;;;;;7.17;5.27;;;21.30;99.90;;;;;;5073347;28;20745;-52
2023/07/19 02:58:27;;;;;;;6.83;6.13;;;21.40;99.90;;;;;;5057414;28;20197;-52
2023/07/19 03:00:54;;;;;;;6.73;5.50;;;21.40;99.90;;;;;;5048107;28;20197;-52
2023/07/19 03:03:21;;;;;;;10.23;4.50;;;21.40;99.90;;;;;;5066431;28;20212;-52
2023/07/19 03:05:49;;;;;;;8.53;4.90;;;21.40;99.90;;;;;;5073324;28;20225;-52
2023/07/19 03:08:16;;;;;;;9.50;5.07;;;21.40;99.90;;;;;;5073164;28;20201;-52
2023/07/19 03:10:43;;;;;;;7.97;4.43;;;21.40;99.90;;;;;;5055998;28;20193;-52
2023/07/19 03:13:10;;;;;;;10.20;5.50;;;21.40;99.90;;;;;;5064817;28;20671;-52
2023/07/19 03:15:37;;;;;;;9.23;5.87;;;21.40;99.90;;;;;;5073012;28;20194;-52
2023/07/19 03:18:05;;;;;;;6.90;5.27;;;21.50;99.90;;;;;;5073068;28;20205;-52
2023/07/19 03:20:32;;;;;;;10.47;5.63;;;21.40;99.90;;;;;;5064466;28;20193;-52
2023/07/19 03:23:01;;;;;;;13.70;6.13;;;21.40;99.90;;;;;;5056616;28;20288;-52
2023/07/19 03:25:29;;;;;;;6.87;5.07;;;21.30;99.90;;;;;;5064377;28;20245;-52
2023/07/19 03:27:56;;;;;;;6.60;5.93;;;21.30;99.90;;;;;;5072803;28;20201;-52
2023/07/19 03:30:23;;;;;;;9.63;5.90;;;21.30;99.90;;;;;;5056380;28;20206;-52
2023/07/19 03:32:51;;;;;;;9.53;5.33;;;21.30;99.90;;;;;;5050109;28;20198;-52
2023/07/19 03:35:19;;;;;;;6.40;5.43;;;21.20;99.90;;;;;;5062427;28;20216;-53
2023/07/19 03:37:46;;;;;;;7.53;5.23;;;21.20;99.90;;;;;;5064288;28;20189;-52
2023/07/19 03:40:15;;;;;;;8.77;5.63;;;21.10;99.90;;;;;;5063179;28;20201;-52
2023/07/19 03:42:42;;;;;;;6.77;5.23;;;21.10;99.90;;;;;;5063875;28;20250;-52
2023/07/19 03:45:09;;;;;;;9.00;5.37;;;21.10;99.90;;;;;;5072294;28;20274;-53
2023/07/19 03:47:36;;;;;;;11.73;5.60;;;21.10;99.90;;;;;;5056506;28;20206;-52
2023/07/19 03:50:06;;;;;;;10.77;6.23;;;21.20;99.90;;;;;;5056577;28;20209;-51
2023/07/19 03:52:33;;;;;;;7.13;5.23;;;21.20;99.90;;;;;;5053501;28;20764;-52
2023/07/19 03:55:00;;;;;;;6.90;5.13;;;21.20;99.90;;;;;;5063802;28;20213;-52
2023/07/19 03:57:28;;;;;;;7.50;5.30;;;21.10;99.90;;;;;;5072216;28;20200;-52
2023/07/19 03:59:56;;;;;;;8.40;5.77;;;21.20;99.90;;;;;;5054815;28;20245;-52
2023/07/19 04:02:23;;;;;;;9.00;6.63;;;21.10;99.90;;;;;;5043579;28;20205;-51
2023/07/19 04:04:50;;;;;;;6.77;6.00;;;21.10;99.90;;;;;;5060113;28;20214;-52
2023/07/19 04:07:17;;;;;;;15.17;6.90;;;21.00;99.90;;;;;;5052281;28;20202;-52
2023/07/19 04:09:45;;;;;;;8.63;6.73;;;21.00;99.90;;;;;;5046574;28;20198;-51
2023/07/19 04:12:12;;;;;;;13.23;7.63;;;21.10;99.90;;;;;;5050572;28;20205;-52
2023/07/19 04:14:40;;;;;;;14.57;6.23;;;21.00;99.90;;;;;;5067728;28;20216;-52
2023/07/19 04:17:07;;;;;;;9.27;6.07;;;21.10;99.90;;;;;;5060329;28;20197;-52
2023/07/19 04:19:34;;;;;;;7.00;6.23;;;21.10;99.90;;;;;;5056693;28;20205;-52
2023/07/19 04:22:01;;;;;;;7.30;5.80;;;21.20;99.90;;;;;;5062448;28;20205;-52
2023/07/19 04:24:28;;;;;;;6.27;5.67;;;21.20;99.90;;;;;;5051421;28;20248;-52
2023/07/19 04:26:55;;;;;;;9.53;5.73;;;21.20;99.90;;;;;;5031972;28;20226;-52
2023/07/19 04:29:23;;;;;;;6.37;5.27;;;21.20;99.90;;;;;;5032867;28;20260;-52
2023/07/19 04:31:51;;;;;;;12.10;5.67;;;21.20;99.90;;;;;;5060900;28;20194;-52
2023/07/19 04:34:18;;;;;;;20.07;6.80;;;21.20;99.90;;;;;;5064264;28;20213;-52
2023/07/19 04:36:45;;;;;;;7.97;6.10;;;21.30;99.90;;;;;;5051066;28;20226;-51
2023/07/19 04:39:12;;;;;;;10.60;6.50;;;21.30;99.90;;;;;;5050399;28;20201;-51
2023/07/19 04:41:39;;;;;;;8.97;6.03;;;21.30;99.90;;;;;;5052829;28;20244;-52
2023/07/19 04:44:06;;;;;;;10.33;6.00;;;21.20;99.90;;;;;;5070859;28;20611;-52
2023/07/19 04:46:33;;;;;;;11.43;6.77;;;21.20;99.90;;;;;;5071615;28;20274;-52
2023/07/19 04:49:01;;;;;;;11.53;6.20;;;21.20;99.90;;;;;;5063967;28;20206;-52
2023/07/19 04:51:28;;;;;;;6.30;5.63;;;21.20;99.90;;;;;;5054759;28;20202;-52
2023/07/19 04:53:55;;;;;;;9.17;6.17;;;21.10;99.90;;;;;;5065161;28;20213;-52
2023/07/19 04:56:22;;;;;;;11.87;6.43;;;21.10;99.90;;;;;;5065113;28;20191;-51
2023/07/19 04:58:49;;;;;;;6.37;5.73;;;21.10;99.90;;;;;;5039431;28;20244;-51
2023/07/19 05:01:16;;;;;;;5.27;4.80;;;21.10;99.90;;;;;;5061725;28;20243;-51
2023/07/19 05:03:43;;;;;;;8.63;6.67;;;21.20;99.90;;;;;;5071741;28;20592;-51
2023/07/19 05:06:11;;;;;;;8.70;6.90;;;21.30;99.90;;;;;;5075302;28;20262;-51
2023/07/19 05:08:38;;;;;;;13.00;7.07;;;21.40;99.90;;;;;;5071959;28;20197;-51
2023/07/19 05:11:05;;;;;;;8.50;5.27;;;21.40;99.90;;;;;;5065322;28;20261;-51
2023/07/19 05:13:32;;;;;;;11.40;7.87;;;21.50;99.90;;;;;;5054907;28;20226;-51
2023/07/19 05:16:00;;;;;;;10.47;6.67;;;21.50;99.90;;;;;;5049503;28;20260;-51
2023/07/19 05:18:28;;;;;;;8.87;6.70;;;21.60;99.90;;;;;;5034879;28;20207;-51
2023/07/19 05:20:55;;;;;;;6.13;5.63;;;21.70;99.90;;;;;;5064996;28;20281;-51
2023/07/19 05:23:23;;;;;;;9.13;6.23;;;21.80;99.90;;;;;;5074662;28;20628;-51
2023/07/19 05:25:50;;;;;;;12.47;6.67;;;22.00;99.90;;;;;;5075179;28;20253;-51
2023/07/19 05:28:20;;;;;;;7.20;5.40;;;22.20;99.90;;;;;;5074976;28;20683;-51
2023/07/19 05:30:47;;;;;;;12.83;6.20;;;22.30;99.90;;;;;;5062711;28;20656;-51
2023/07/19 05:33:14;;;;;;;12.20;5.87;;;22.30;99.90;;;;;;5059089;28;20210;-51
2023/07/19 05:35:42;;;;;;;11.00;6.87;;;22.30;99.90;;;;;;5035209;28;20198;-51
2023/07/19 05:38:09;;;;;;;7.47;6.67;;;22.10;99.90;;;;;;5034871;28;20607;-51
2023/07/19 05:40:37;;;;;;;6.30;5.27;;;22.10;99.90;;;;;;5049070;28;20598;-51
2023/07/19 05:43:04;;;;;;;6.57;6.10;;;22.10;99.90;;;;;;5054839;28;20201;-51
2023/07/19 05:45:32;;;;;;;13.00;6.37;;;22.20;99.90;;;;;;5054628;28;20221;-51
2023/07/19 05:47:59;;;;;;;9.73;6.03;;;22.10;99.90;;;;;;5054260;28;20227;-51
2023/07/19 05:50:27;;;;;;;10.87;7.10;;;22.20;99.90;;;;;;5060810;28;20292;-51
2023/07/19 05:52:55;;;;;;;10.77;6.40;;;22.30;99.90;;;;;;5055996;28;20565;-51
2023/07/19 05:55:22;;;;;;;9.90;6.47;;;22.20;99.90;;;;;;5054531;28;20222;-51
2023/07/19 05:57:50;;;;;;;8.47;6.23;;;22.30;99.90;;;;;;5054362;28;20709;-51
2023/07/19 06:00:24;;;;;;;7.50;6.33;;;22.30;99.90;;;;;;5061776;28;20201;-51
2023/07/19 06:02:51;;;;;;;8.90;6.00;;;22.70;99.90;;;;;;5071847;28;20197;-51
2023/07/19 06:05:19;;;;;;;11.07;6.57;;;23.20;99.90;;;;;;5074286;28;20217;-51
2023/07/19 06:07:47;;;;;;;11.50;5.47;;;23.20;99.90;;;;;;5050381;28;20280;-51
2023/07/19 06:10:14;;;;;;;7.87;5.63;;;23.20;99.90;;;;;;5048296;28;20229;-51
2023/07/19 06:12:46;;;;;;;8.63;6.03;;;23.00;99.90;;;;;;5051304;28;20208;-51
2023/07/19 06:15:15;;;;;;;7.43;6.03;;;22.80;99.90;;;;;;5053989;28;20726;-51
2023/07/19 06:17:43;;;;;;;9.60;5.63;;;22.80;99.90;;;;;;5054333;28;20202;-51
2023/07/19 06:20:11;;;;;;;14.40;6.63;;;22.80;99.90;;;;;;5056629;28;20612;-51
2023/07/19 06:22:38;;;;;;;8.80;6.03;;;22.80;99.90;;;;;;5065325;28;20197;-51
2023/07/19 06:25:06;;;;;;;9.63;6.87;;;22.70;99.90;;;;;;5044468;28;20895;-51
2023/07/19 06:27:33;;;;;;;9.30;6.57;;;22.70;99.90;;;;;;5033894;28;20218;-51
2023/07/19 06:30:00;;;;;;;10.73;6.27;;;23.00;99.90;;;;;;5044209;28;20563;-51
2023/07/19 06:32:28;;;;;;;8.80;7.90;;;23.10;99.90;;;;;;5064536;28;20205;-51
2023/07/19 06:34:55;;;;;;;7.83;6.10;;;23.20;99.90;;;;;;5065358;28;20213;-51
2023/07/19 06:37:22;;;;;;;7.93;5.83;;;23.20;99.90;;;;;;5073610;28;20193;-51
2023/07/19 06:39:49;;;;;;;6.90;6.10;;;23.20;99.90;;;;;;5054134;28;20611;-52
2023/07/19 06:42:16;;;;;;;12.13;6.80;;;23.30;99.90;;;;;;5045519;28;20198;-52
2023/07/19 06:44:43;;;;;;;11.17;7.50;;;23.40;99.90;;;;;;5046211;28;20638;-52
2023/07/19 06:47:10;;;;;;;13.10;7.13;;;23.40;99.90;;;;;;5063145;28;20271;-52
2023/07/19 06:49:38;;;;;;;7.33;5.97;;;23.50;99.90;;;;;;5055566;28;20213;-51
2023/07/19 06:52:06;;;;;;;13.73;5.37;;;23.50;99.90;;;;;;5044460;28;20198;-52
2023/07/19 06:54:33;;;;;;;10.60;6.93;;;23.50;99.90;;;;;;5040265;28;20625;-52
2023/07/19 06:57:00;;;;;;;8.70;6.00;;;23.60;99.90;;;;;;5040237;28;20307;-52
2023/07/19 06:59:28;;;;;;;8.17;5.80;;;24.10;99.90;;;;;;5057291;28;20275;-52
2023/07/19 07:01:55;;;;;;;6.23;5.63;;;25.20;99.90;;;;;;5063209;28;20194;-52
2023/07/19 07:04:22;;;;;;;9.80;6.33;;;26.30;99.90;;;;;;5072909;28;20221;-52
2023/07/19 07:06:50;;;;;;;6.73;5.70;;;26.20;99.90;;;;;;5072804;28;20217;-52
2023/07/19 07:09:17;;;;;;;11.57;6.00;;;26.80;99.90;;;;;;5063324;28;20203;-52
2023/07/19 07:11:44;;;;;;;8.17;5.17;;;27.20;99.90;;;;;;5044144;28;20815;-55
2023/07/19 07:14:11;;;;;;;8.20;6.17;;;26.90;99.90;;;;;;5050606;28;20221;-52
2023/07/19 07:16:38;;;;;;;6.38;5.78;;;26.80;99.90;;;;;;5061168;28;20189;-51
2023/07/19 07:19:05;;;;;;;6.80;6.07;;;26.50;99.90;;;;;;5053701;28;20256;-52
2023/07/19 07:21:33;;;;;;;8.30;6.40;;;26.20;99.90;;;;;;5044456;28;20204;-51
2023/07/19 07:24:01;;;;;;;10.90;6.10;;;25.90;99.90;;;;;;5047615;28;20227;-52
2023/07/19 07:26:28;;;;;;;8.10;5.70;;;25.40;99.90;;;;;;5044910;28;20259;-52
2023/07/19 07:28:55;;;;;;;6.73;6.13;;;25.30;99.90;;;;;;5054585;28;20572;-52
2023/07/19 07:31:22;;;;;;;6.23;5.63;;;25.10;99.90;;;;;;5107212;22;20224;-52
2023/07/19 07:33:49;;;;;;;7.13;5.00;;;25.20;99.90;;;;;;5062335;28;20194;-52
2023/07/19 07:36:16;;;;;;;5.20;4.73;;;25.30;99.90;;;;;;5058489;28;20204;-57
2023/07/19 07:38:44;;;;;;;7.30;5.05;;;26.00;99.90;;;;;;5063049;28;20572;-61
2023/07/19 07:41:12;;;;;;;6.70;5.73;;;26.40;99.90;;;;;;5056323;28;20751;-59
2023/07/19 07:43:40;;;;;;;7.07;5.13;;;26.60;99.90;;;;;;5040332;28;20614;-61
2023/07/19 07:46:07;;;;;;;5.20;4.90;;;26.40;99.90;;;;;;5043339;28;20699;-62
2023/07/19 07:48:34;;;;;;;6.32;5.55;;;26.40;99.90;;;;;;5052013;28;20197;-64
2023/07/19 07:51:01;;;;;;;6.35;5.38;;;26.40;99.90;;;;;;5050079;28;20218;-61
2023/07/19 07:53:28;;;;;;;6.63;4.53;;;26.40;99.90;;;;;;5048576;28;20205;-61
2023/07/19 07:55:55;;;;;;;7.75;6.32;;;26.30;99.90;;;;;;5042190;28;20202;-52
2023/07/19 07:58:23;;;;;;;6.55;5.88;;;26.40;99.90;;;;;;5049629;28;20202;-53
2023/07/19 08:00:51;;;;;;;7.07;4.90;;;26.50;99.90;;;;;;5040540;28;20213;-52
2023/07/19 08:03:18;;;;;;;5.57;4.55;;;26.90;99.90;;;;;;5037726;28;20714;-51
2023/07/19 08:05:45;;;;;;;6.68;4.20;;;28.00;99.90;;;;;;5044635;28;20201;-52
2023/07/19 08:08:12;;;;;;;5.50;5.07;;;29.10;99.90;;;;;;5042705;28;20268;-51
2023/07/19 08:10:39;;;;;;;5.03;4.65;;;29.40;99.90;;;;;;5035774;28;20214;-53
2023/07/19 08:13:06;;;;;;;4.85;4.45;;;29.10;99.90;;;;;;5032175;28;20198;-52
2023/07/19 08:15:35;;;;;;;5.32;4.53;;;28.90;99.90;;;;;;5037693;28;20259;-52
2023/07/19 08:18:02;;;;;;;6.43;5.10;;;28.50;99.90;;;;;;5039165;28;20206;-52
2023/07/19 08:20:30;;;;;;;5.35;4.53;;;27.80;99.90;;;;;;5034677;28;20210;-55
2023/07/19 08:22:57;;;;;;;5.63;4.75;;;27.50;99.90;;;;;;5051293;28;20635;-53
2023/07/19 08:25:24;;;;;;;5.72;4.63;;;27.50;99.90;;;;;;5049763;28;20685;-52
2023/07/19 08:27:51;;;;;;;5.43;4.88;;;27.60;99.90;;;;;;5042279;28;20221;-52
2023/07/19 08:30:18;;;;;;;4.82;4.53;;;27.40;99.90;;;;;;5045779;28;20885;-53
2023/07/19 08:32:47;;;;;;;6.32;5.55;;;27.30;99.90;;;;;;5040518;28;20263;-52
2023/07/19 08:35:15;;;;;;;6.15;5.45;;;27.10;99.90;;;;;;5050748;28;20207;-52
2023/07/19 08:37:43;;;;;;;5.38;4.70;;;26.80;99.90;;;;;;5051297;28;20240;-52
2023/07/19 08:40:12;;;;;;;7.07;4.75;;;26.60;99.90;;;;;;5039731;28;20225;-52
2023/07/19 08:42:43;;;;;;;4.75;4.45;;;26.40;99.90;;;;;;5051382;28;20267;-53
2023/07/19 08:45:12;;;;;;;6.63;5.60;;;26.30;99.90;;;;;;5050611;28;20210;-53
2023/07/19 08:47:41;;;;;;;6.05;4.72;;;26.30;99.90;;;;;;5043355;28;20228;-54
2023/07/19 08:50:11;;;;;;;14.75;5.50;;;26.50;99.90;;;;;;5043232;28;20707;-52
2023/07/19 08:52:39;;;;;;;4.72;4.45;;;26.70;99.90;;;;;;5051381;28;20206;-53
2023/07/19 08:55:07;;;;;;;6.03;5.50;;;26.80;99.90;;;;;;5050908;28;20201;-53
2023/07/19 08:57:42;;;;;;;5.55;5.00;;;26.60;99.90;;;;;;5040252;28;20190;-52
2023/07/19 09:00:10;;;;;;;5.20;4.88;;;26.60;99.90;;;;;;5031378;28;20222;-53
2023/07/19 09:02:37;;;;;;;6.18;5.60;;;26.80;99.90;;;;;;5031363;28;20199;-53
2023/07/19 09:05:09;;;;;;;6.50;4.80;;;27.00;99.90;;;;;;5031427;28;20202;-53
2023/07/19 09:07:37;;;;;;;5.13;4.45;;;27.10;99.90;;;;;;5046911;28;20213;-52
2023/07/19 09:10:05;;;;;;;5.78;5.28;;;27.30;99.90;;;;;;5035808;28;20224;-52
2023/07/19 09:12:42;;;;;;;5.40;4.93;;;27.60;99.90;;;;;;5039773;28;20668;-52
2023/07/19 09:15:11;;;;;;;5.60;5.30;;;28.10;99.90;;;;;;5046954;28;20205;-52
2023/07/19 09:17:41;;;;;;;5.95;5.45;;;28.10;99.90;;;;;;5042839;28;20190;-52
2023/07/19 09:20:10;;;;;;;6.00;5.50;;;28.10;99.90;;;;;;5031282;28;20727;-52
2023/07/19 09:22:41;;;;;;;6.03;5.50;;;28.30;99.90;;;;;;5031099;28;20203;-52
2023/07/19 09:25:10;;;;;;;6.00;5.60;;;28.70;99.90;;;;;;5036985;28;20230;-52
2023/07/19 09:27:37;;;;;;;4.90;4.60;;;29.00;99.90;;;;;;5039541;28;20590;-53
2023/07/19 09:30:10;;;;;;;5.88;5.47;;;29.20;99.90;;;;;;5030985;28;20771;-53
2023/07/19 09:32:37;;;;;;;5.70;5.25;;;29.80;99.90;;;;;;5069243;28;20717;-53
2023/07/19 09:35:06;;;;;;;5.32;4.75;;;30.60;99.90;;;;;;5057517;28;20203;-52
2023/07/19 09:37:34;;;;;;;6.10;5.20;;;30.90;99.90;;;;;;5040706;28;20198;-52
2023/07/19 09:40:04;;;;;;;5.38;4.97;;;30.80;99.90;;;;;;5035096;28;20716;-52
2023/07/19 09:42:32;;;;;;;5.47;5.03;;;30.20;99.90;;;;;;5034686;28;20206;-52
2023/07/19 09:45:00;;;;;;;6.25;5.85;;;30.20;99.90;;;;;;5043201;28;20567;-53
2023/07/19 09:47:28;;;;;;;6.15;5.75;;;30.20;99.90;;;;;;5046858;28;20221;-53
2023/07/19 09:49:55;;;;;;;5.30;5.00;;;30.30;99.90;;;;;;5074491;28;20221;-53
2023/07/19 09:52:26;;;;;;;6.32;5.78;;;30.60;99.90;;;;;;5074278;28;20671;-53
2023/07/19 09:54:54;;;;;;;7.90;5.63;;;31.40;99.90;;;;;;5064153;28;20206;-53
2023/07/19 09:57:24;;;;;;;5.45;4.95;;;31.80;99.90;;;;;;5042771;28;20195;-53
2023/07/19 09:59:53;;;;;;;5.07;4.78;;;32.40;99.90;;;;;;5034560;28;20313;-53
2023/07/19 10:02:22;;;;;;;5.72;5.25;;;31.70;99.90;;;;;;5034143;28;20238;-53
2023/07/19 10:04:50;;;;;;;6.55;5.95;;;31.40;99.90;;;;;;5041567;28;20281;-53
2023/07/19 10:07:20;;;;;;;5.72;5.18;;;31.90;99.90;;;;;;5054080;28;20224;-53
2023/07/19 10:09:49;;;;;;;4.97;4.68;;;32.20;99.90;;;;;;5053814;28;20637;-53
2023/07/19 10:12:25;;;;;;;5.43;5.03;;;31.90;99.90;;;;;;5050089;28;20683;-53
2023/07/19 10:14:56;;;;;;;4.75;4.45;;;32.10;99.90;;;;;;5043372;28;20194;-52
2023/07/19 10:17:24;;;;;;;6.32;5.80;;;31.80;99.90;;;;;;5039919;28;20195;-52
2023/07/19 10:19:58;;;;;;;7.20;5.40;;;32.40;99.90;;;;;;5052914;28;20214;-53
2023/07/19 10:22:57;;;;;;;6.30;5.05;;;32.30;99.90;;;;;;5054431;28;20205;-52
2023/07/19 10:25:27;;;;;;;6.00;5.50;;;31.70;99.90;;;;;;5050238;28;20198;-53
2023/07/19 10:28:03;;;;;;;6.22;5.72;;;31.70;99.90;;;;;;5050867;28;20257;-52
2023/07/19 10:30:50;;;;;;;6.85;6.40;;;31.20;99.90;;;;;;5053861;28;20278;-53
2023/07/19 10:33:19;;;;;;;5.80;5.50;;;31.70;99.90;;;;;;5044016;28;20221;-53
2023/07/19 10:35:47;;;;;;;6.13;5.50;;;32.60;99.90;;;;;;5042248;28;20215;-53
2023/07/19 10:38:15;;;;;;;6.38;5.75;;;33.50;99.90;;;;;;5053418;28;20202;-53
2023/07/19 10:40:46;;;;;;;7.55;5.80;;;33.70;99.90;;;;;;5050026;28;20231;-53
2023/07/19 10:43:15;;;;;;;6.32;5.82;;;33.70;99.90;;;;;;5050878;28;20209;-53
2023/07/19 10:45:42;;;;;;;5.75;5.30;;;34.10;99.90;;;;;;5049583;28;20233;-53
2023/07/19 10:48:11;;;;;;;5.25;4.68;;;33.50;99.90;;;;;;5040196;28;20279;-62
2023/07/19 10:50:39;;;;;;;5.15;4.78;;;33.00;99.90;;;;;;5042681;28;20594;-66
2023/07/19 10:53:07;;;;;;;5.22;4.85;;;32.30;99.90;;;;;;5045282;28;20288;-61
2023/07/19 10:55:34;;;;;;;5.55;5.25;;;31.50;99.90;;;;;;5046281;28;20281;-61
2023/07/19 10:58:01;;;;;;;4.82;4.32;;;30.90;99.90;;;;;;5051404;28;20644;-62
2023/07/19 11:00:29;;;;;;;7.00;6.03;;;30.30;99.90;;;;;;5048716;28;20244;-63
2023/07/19 11:02:56;;;;;;;5.53;4.97;;;29.60;99.90;;;;;;5050472;28;20202;-60
2023/07/19 11:05:23;;;;;;;5.72;5.32;;;29.50;99.90;;;;;;5048660;28;20198;-59
2023/07/19 11:07:51;;;;;;;7.13;5.35;;;29.40;99.90;;;;;;5049537;28;20271;-59
2023/07/19 11:10:19;;;;;;;5.68;5.32;;;29.20;99.90;;;;;;5042255;28;20220;-59
2023/07/19 11:12:46;;;;;;;5.47;5.18;;;28.90;99.90;;;;;;5053042;28;20198;-56
2023/07/19 11:15:14;;;;;;;6.95;5.05;;;28.90;99.90;;;;;;5052510;28;20757;-59
2023/07/19 11:17:48;;;;;;;6.55;6.03;;;28.80;99.90;;;;;;5049685;28;20233;-54
2023/07/19 11:20:30;;;;;;;5.97;5.57;;;28.80;99.90;;;;;;5047818;28;20301;-52
2023/07/19 11:23:05;;;;;;;8.73;5.28;;;28.80;99.90;;;;;;5040627;28;20660;-60
2023/07/19 11:25:32;;;;;;;5.53;5.22;;;28.90;99.90;;;;;;5032616;28;20293;-60
2023/07/19 11:27:59;;;;;;;5.40;5.00;;;28.80;99.90;;;;;;5034174;28;20254;-57
2023/07/19 11:30:37;;;;;;;7.53;6.05;;;28.60;99.90;;;;;;5045606;28;20280;-57
2023/07/19 11:33:06;;;;;;;5.47;5.05;;;28.60;99.90;;;;;;5047184;28;20210;-58
2023/07/19 11:35:33;;;;;;;6.03;5.55;;;28.40;99.90;;;;;;5044283;28;20734;-58
2023/07/19 11:38:00;;;;;;;7.07;5.60;;;28.20;99.90;;;;;;5047642;28;21122;-58
2023/07/19 11:40:27;;;;;;;6.45;5.90;;;28.00;99.90;;;;;;5045807;28;20250;-60
2023/07/19 11:42:58;;;;;;;5.88;5.40;;;27.80;99.90;;;;;;5036033;28;20741;-59
2023/07/19 11:45:26;;;;;;;5.47;5.15;;;27.90;99.90;;;;;;5044983;28;20209;-56
2023/07/19 11:47:58;;;;;;;5.65;5.35;;;28.40;99.90;;;;;;5046199;28;20253;-57
2023/07/19 11:50:27;;;;;;;5.97;5.55;;;28.90;99.90;;;;;;5046130;28;20940;-57
2023/07/19 11:52:56;;;;;;;6.25;5.40;;;29.20;99.90;;;;;;5039726;28;20287;-57
2023/07/19 11:55:25;;;;;;;5.57;5.07;;;29.40;99.90;;;;;;5032021;28;20194;-58
2023/07/19 11:57:53;;;;;;;7.38;6.68;;;29.80;99.90;;;;;;5045156;28;20198;-58
2023/07/19 12:00:22;;;;;;;7.05;6.38;;;29.80;99.90;;;;;;5042261;28;20271;-55
2023/07/19 12:02:50;;;;;;;9.77;6.43;;;29.50;99.90;;;;;;5049058;28;20335;-60
2023/07/19 12:05:18;;;;;;;5.95;5.45;;;29.30;99.90;;;;;;5044221;28;20197;-57
2023/07/19 12:07:50;;;;;;;6.00;5.60;;;29.40;99.90;;;;;;5041912;28;20254;-57
2023/07/19 12:10:19;;;;;;;6.28;5.80;;;29.00;99.90;;;;;;5038492;28;20728;-58
2023/07/19 12:12:49;;;;;;;6.80;6.40;;;28.70;99.90;;;;;;5044515;28;20206;-57
2023/07/19 12:15:18;;;;;;;6.40;6.00;;;28.40;99.90;;;;;;5036626;28;20198;-61
2023/07/19 12:17:47;;;;;;;7.05;6.43;;;28.20;99.90;;;;;;5041723;28;20190;-64
2023/07/19 12:20:14;;;;;;;7.22;6.60;;;28.20;99.90;;;;;;5051668;28;20287;-65
2023/07/19 12:22:45;;;;;;;7.10;6.50;;;28.00;99.90;;;;;;5050521;28;20232;-65
2023/07/19 12:25:14;;;;;;;7.10;6.57;;;27.90;99.90;;;;;;5040654;28;20202;-61
2023/07/19 12:27:43;;;;;;;6.88;6.38;;;27.90;99.90;;;;;;5051354;28;20213;-63
2023/07/19 12:30:11;;;;;;;6.78;6.13;;;28.00;99.90;;;;;;5051207;28;20325;-63
2023/07/19 12:32:38;;;;;;;6.80;6.40;;;28.10;99.90;;;;;;5042637;28;20225;-64
2023/07/19 12:35:06;;;;;;;6.82;6.20;;;28.30;99.90;;;;;;5039834;28;20199;-65
2023/07/19 12:37:34;;;;;;;6.78;6.10;;;28.30;99.90;;;;;;5036060;28;20206;-65
2023/07/19 12:40:01;;;;;;;6.22;5.85;;;28.40;99.90;;;;;;5071478;28;20264;-64
2023/07/19 12:42:29;;;;;;;7.40;6.85;;;28.50;99.90;;;;;;5057612;28;20630;-66
2023/07/19 12:44:56;;;;;;;6.47;6.07;;;28.50;99.90;;;;;;5051071;28;20205;-64
2023/07/19 12:47:23;;;;;;;6.72;6.15;;;28.30;99.90;;;;;;5045223;28;20194;-60
2023/07/19 12:49:50;;;;;;;6.93;6.38;;;28.20;99.90;;;;;;5039587;28;20264;-64